Ulan Bator, Mongolia
Current Conditions -  °F | °C
As of 7:00 AM on Saturday 29 Nov 2014 (Local Time) from ZMUB Reporting Station
Smoke Smoke  
Wind Chill: -2°   Ceiling: Unl
Heat Index: -2°   Visibility: 3mi
Dew Point: -9°   Wind: 0mph
Humidity: 71%   Direction: NA
Pressure: 29.8"   Gusts: NA
Location:  47.92°N, 106.91°E
Report Text: ZMUB 282300Z 00000MPS 5000NW FU NSC M19/M23 Q1009 NOSIG RMK QFE650.0 71
Loading
Personal Weather Stations






























Interactive Weather Map New forecast layout! Learn more

10-Day Weather Forecast

Advertisements
Track Severe Weather on mobile